Time;durP1;ratioP1;P1;durP2;ratioP2;P2;SDS_P1;SDS_P2;PMS_P1;PMS_P2;Temp;Humidity;BMP_temperature;BMP_pressure;BME280_temperature;BME280_humidity;BME280_pressure;Samples;Min_cycle;Max_cycle;Signal;HPM_P1;HPM_P2
2022/03/02 00:00:14;;;;;;;34.33;18.85;;;;;;;-2.81;69.94;100543.09;4898028;29;20568;-81
2022/03/02 00:02:42;;;;;;;37.25;18.60;;;;;;;-2.82;70.45;100536.13;4896966;29;20409;-82
2022/03/02 00:05:08;;;;;;;37.95;20.00;;;;;;;-2.85;70.31;100541.38;4881603;29;20040;-81
2022/03/02 00:07:34;;;;;;;32.60;16.75;;;;;;;-2.89;70.64;100542.28;4897890;29;20044;-82
2022/03/02 00:10:00;;;;;;;35.83;18.63;;;;;;;-2.96;70.71;100541.44;4896823;29;20507;-81
2022/03/02 00:12:27;;;;;;;34.65;18.08;;;;;;;-3.09;71.14;100541.50;4896878;29;20059;-81
2022/03/02 00:14:52;;;;;;;36.55;20.13;;;;;;;-3.14;70.74;100536.28;4896801;29;20051;-81
2022/03/02 00:17:18;;;;;;;36.40;20.00;;;;;;;-2.97;70.98;100551.88;4897790;29;20056;-82
2022/03/02 00:19:44;;;;;;;35.13;18.25;;;;;;;-2.85;70.29;100541.38;4898062;29;20057;-80
2022/03/02 00:22:11;;;;;;;35.15;20.42;;;;;;;-2.97;70.80;100542.31;4897961;29;20059;-81
2022/03/02 00:24:38;;;;;;;36.10;20.08;;;;;;;-2.95;70.64;100534.44;4898156;29;20063;-81
2022/03/02 00:27:04;;;;;;;42.65;20.30;;;;;;;-2.90;70.17;100544.88;4896669;29;20044;-81
2022/03/02 00:29:29;;;;;;;39.53;20.73;;;;;;;-2.82;70.58;100543.06;4896710;29;20132;-82
2022/03/02 00:31:55;;;;;;;42.58;22.73;;;;;;;-2.80;70.65;100543.94;4898290;29;20438;-81
2022/03/02 00:34:21;;;;;;;44.50;22.05;;;;;;;-2.63;70.28;100559.53;4896810;29;20052;-82
2022/03/02 00:36:47;;;;;;;48.40;22.33;;;;;;;-2.65;70.00;100548.22;4897641;29;20497;-82
2022/03/02 00:39:13;;;;;;;45.22;22.17;;;;;;;-2.69;70.07;100556.09;4898215;29;20060;-81
2022/03/02 00:41:39;;;;;;;48.22;22.00;;;;;;;-2.84;69.95;100557.94;4897758;29;20055;-81
2022/03/02 00:44:05;;;;;;;41.13;20.92;;;;;;;-2.72;70.27;100561.34;4898042;29;20048;-81
2022/03/02 00:46:32;;;;;;;80.93;32.78;;;;;;;-2.73;70.11;100546.50;4880869;29;20116;-81
2022/03/02 00:49:00;;;;;;;62.05;28.25;;;;;;;-2.79;70.24;100558.75;4896639;29;20040;-80
2022/03/02 00:51:27;;;;;;;56.42;26.92;;;;;;;-2.79;70.30;100550.91;4896236;29;20051;-81
2022/03/02 00:53:54;;;;;;;58.13;24.95;;;;;;;-2.70;70.02;100558.72;4880900;29;20040;-82
2022/03/02 00:56:20;;;;;;;69.32;29.80;;;;;;;-2.60;69.93;100565.59;4897465;29;20044;-82
2022/03/02 00:58:47;;;;;;;64.68;28.25;;;;;;;-2.60;69.67;100555.13;4896534;29;20445;-82
2022/03/02 01:01:13;;;;;;;52.20;22.95;;;;;;;-2.59;70.02;100563.88;4880954;29;20044;-82
2022/03/02 01:03:39;;;;;;;49.53;22.15;;;;;;;-2.59;69.81;100569.13;4897571;29;20048;-82
2022/03/02 01:06:06;;;;;;;53.03;23.67;;;;;;;-2.79;69.76;100557.00;4897607;29;20117;-81
2022/03/02 01:08:34;;;;;;;51.15;24.25;;;;;;;-2.84;70.27;100568.41;4897230;29;20048;-82
2022/03/02 01:11:01;;;;;;;54.17;25.13;;;;;;;-2.84;70.53;100550.94;4896832;29;20049;-82
2022/03/02 01:13:27;;;;;;;55.30;25.30;;;;;;;-2.64;70.20;100565.66;4869039;29;20045;-87
2022/03/02 01:15:53;;;;;;;87.85;31.63;;;;;;;-2.45;69.83;100557.66;4901054;29;20104;-82
2022/03/02 01:18:19;;;;;;;116.60;38.85;;;;;;;-2.27;70.03;100550.53;4901265;29;20048;-81
2022/03/02 01:20:45;;;;;;;73.30;30.67;;;;;;;-2.20;69.49;100549.59;4900194;29;20060;-82
2022/03/02 01:23:11;;;;;;;93.03;33.72;;;;;;;-2.15;68.90;100545.19;4901044;29;20049;-82
2022/03/02 01:25:38;;;;;;;101.30;33.92;;;;;;;-2.28;68.42;100547.06;4899819;29;20124;-83
2022/03/02 01:28:04;;;;;;;125.55;44.85;;;;;;;-2.54;69.29;100552.50;4899616;29;20501;-82
2022/03/02 01:30:30;;;;;;;124.75;45.08;;;;;;;-2.43;69.40;100535.84;4900824;29;20074;-81
2022/03/02 01:32:56;;;;;;;119.53;44.47;;;;;;;-2.25;69.08;100533.94;4884000;29;20096;-82
2022/03/02 01:35:22;;;;;;;117.88;45.78;;;;;;;-2.13;69.07;100543.44;4900882;29;20052;-82
2022/03/02 01:37:50;;;;;;;131.43;46.65;;;;;;;-2.03;68.42;100541.56;4899519;29;20139;-82
2022/03/02 01:40:17;;;;;;;129.27;46.20;;;;;;;-1.94;68.64;100528.41;4868638;29;20068;-83
2022/03/02 01:42:44;;;;;;;126.28;43.78;;;;;;;-1.83;68.05;100537.03;4899433;29;20050;-82
2022/03/02 01:45:12;;;;;;;117.38;44.17;;;;;;;-1.78;67.77;100529.97;4899385;29;20041;-81
2022/03/02 01:47:39;;;;;;;116.82;42.65;;;;;;;-1.67;67.60;100534.22;4867995;29;20048;-82
2022/03/02 01:50:09;;;;;;;101.03;41.45;;;;;;;-1.68;67.17;100527.25;4883374;29;20048;-82
2022/03/02 01:52:35;;;;;;;118.68;41.78;;;;;;;-1.63;66.98;100533.31;4849686;29;20052;-83
2022/03/02 01:55:03;;;;;;;110.07;40.90;;;;;;;-1.69;67.41;100512.41;4891016;29;20049;-82
2022/03/02 01:57:29;;;;;;;112.60;41.75;;;;;;;-1.64;67.25;100529.81;4900284;29;20084;-81
2022/03/02 01:59:56;;;;;;;106.75;39.65;;;;;;;-1.60;67.05;100533.28;4900227;29;20161;-81
2022/03/02 02:02:22;;;;;;;112.13;43.33;;;;;;;-1.62;66.95;100520.16;4900379;29;20124;-81
2022/03/02 02:04:48;;;;;;;116.60;42.25;;;;;;;-1.58;66.41;100532.41;4900315;29;20092;-81
2022/03/02 02:07:14;;;;;;;127.70;42.28;;;;;;;-1.58;66.30;100529.78;4883834;29;20044;-81
2022/03/02 02:09:40;;;;;;;111.75;43.47;;;;;;;-1.66;66.46;100530.72;4900366;29;20079;-83
2022/03/02 02:12:06;;;;;;;120.22;42.72;;;;;;;-1.67;66.89;100532.47;4883266;29;20037;-82
2022/03/02 02:14:32;;;;;;;126.47;45.17;;;;;;;-1.72;66.99;100537.78;4898897;29;20052;-82
2022/03/02 02:16:58;;;;;;;117.03;45.83;;;;;;;-1.68;67.06;100525.50;4900114;29;20143;-82
2022/03/02 02:19:24;;;;;;;128.73;48.08;;;;;;;-1.60;67.09;100522.78;4883253;29;20144;-81
2022/03/02 02:21:50;;;;;;;131.88;49.03;;;;;;;-1.57;67.12;100520.16;4883249;29;20056;-82
2022/03/02 02:24:16;;;;;;;119.82;46.72;;;;;;;-1.50;66.94;100532.31;4903084;29;20391;-83
2022/03/02 02:26:42;;;;;;;122.45;47.55;;;;;;;-1.51;66.31;100525.28;4903901;29;20045;-81
2022/03/02 02:29:10;;;;;;;115.75;46.88;;;;;;;-1.50;66.18;100534.94;4899783;29;20049;-83
2022/03/02 02:31:36;;;;;;;118.35;47.17;;;;;;;-1.50;66.12;100541.03;4900258;29;20045;-81
2022/03/02 02:34:02;;;;;;;117.10;44.53;;;;;;;-1.44;66.84;100545.31;4883431;29;20049;-82
2022/03/02 02:36:28;;;;;;;117.68;43.63;;;;;;;-1.40;66.57;100533.03;4899632;29;20055;-82
2022/03/02 02:38:54;;;;;;;118.22;42.72;;;;;;;-1.37;66.49;100541.75;4905445;29;20072;-79
2022/03/02 02:41:20;;;;;;;101.82;39.10;;;;;;;-1.45;66.24;100527.00;4902704;29;20049;-81
2022/03/02 02:43:47;;;;;;;125.05;42.95;;;;;;;-1.46;65.95;100534.00;4901892;29;20127;-82
2022/03/02 02:46:14;;;;;;;106.20;40.78;;;;;;;-1.52;66.21;100534.06;4883278;29;20044;-83
2022/03/02 02:48:40;;;;;;;111.10;41.03;;;;;;;-1.59;66.63;100540.25;4898846;29;20040;-82
2022/03/02 02:51:07;;;;;;;135.65;42.65;;;;;;;-1.58;67.28;100541.97;4898288;29;20060;-81
2022/03/02 02:53:34;;;;;;;112.30;41.75;;;;;;;-1.52;67.23;100552.41;4866814;29;20091;-81
2022/03/02 02:56:01;;;;;;;112.43;41.22;;;;;;;-1.50;67.19;100551.53;4882850;29;20051;-80
2022/03/02 02:58:27;;;;;;;103.18;38.00;;;;;;;-1.53;66.83;100555.94;4882371;29;20416;-83
2022/03/02 03:00:53;;;;;;;101.28;37.90;;;;;;;-1.56;67.08;100558.59;4882601;29;20048;-82
2022/03/02 03:03:19;;;;;;;92.68;34.72;;;;;;;-1.68;66.93;100556.97;4899485;29;20515;-83
2022/03/02 03:05:45;;;;;;;72.22;29.42;;;;;;;-1.90;66.87;100553.69;4882115;29;20048;-82
2022/03/02 03:08:13;;;;;;;68.70;28.48;;;;;;;-2.06;66.77;100559.97;4899369;29;20052;-82
2022/03/02 03:10:41;;;;;;;63.03;24.63;;;;;;;-2.24;67.13;100561.00;4899117;29;20053;-82
2022/03/02 03:13:08;;;;;;;73.38;30.60;;;;;;;-2.20;67.42;100565.31;4882775;29;20049;-82
2022/03/02 03:15:35;;;;;;;74.68;30.58;;;;;;;-2.12;67.58;100573.13;4866787;29;20056;-84
2022/03/02 03:18:02;;;;;;;78.93;30.58;;;;;;;-2.07;67.56;100568.69;4882523;29;20550;-82
2022/03/02 03:20:28;;;;;;;80.32;31.33;;;;;;;-1.94;67.53;100572.94;4882245;29;20048;-84
2022/03/02 03:22:56;;;;;;;80.75;30.90;;;;;;;-1.95;67.57;100576.47;4899697;29;20511;-82
2022/03/02 03:25:23;;;;;;;71.03;30.52;;;;;;;-1.84;67.34;100568.47;4881743;29;20052;-82
2022/03/02 03:27:49;;;;;;;87.80;33.33;;;;;;;-1.73;67.43;100572.75;4899037;29;20052;-83
2022/03/02 03:30:19;;;;;;;79.97;31.55;;;;;;;-1.63;66.97;100572.63;4897449;29;20048;-83
2022/03/02 03:32:45;;;;;;;;;;;;;;;-1.58;66.59;100573.44;4898077;29;20151;-81
2022/03/02 03:35:12;;;;;;;74.32;28.45;;;;;;;-1.66;66.94;100575.28;4881570;29;19919;-83
2022/03/02 03:37:39;;;;;;;61.67;24.40;;;;;;;-1.68;66.84;100579.69;4898791;29;20052;-83
2022/03/02 03:40:06;;;;;;;65.22;25.58;;;;;;;-1.71;66.68;100583.22;4897364;29;20235;-82
2022/03/02 03:42:33;;;;;;;56.72;24.40;;;;;;;-1.80;66.62;100586.78;4881645;29;20154;-81
2022/03/02 03:44:59;;;;;;;59.17;24.52;;;;;;;-1.93;67.08;100577.28;4881591;29;20052;-82
2022/03/02 03:47:25;;;;;;;60.15;24.67;;;;;;;-1.99;67.77;100585.22;4898342;29;20045;-81
2022/03/02 03:49:51;;;;;;;57.92;26.25;;;;;;;-1.92;67.74;100584.25;4881610;29;20411;-85
2022/03/02 03:52:17;;;;;;;55.33;23.83;;;;;;;-1.77;68.47;100597.25;4866173;29;20048;-81
2022/03/02 03:54:43;;;;;;;53.10;23.52;;;;;;;-1.70;67.81;100595.41;4865886;29;20054;-80
2022/03/02 03:57:09;;;;;;;64.53;26.33;;;;;;;-1.81;67.52;100587.66;4898468;29;20124;-80
2022/03/02 03:59:35;;;;;;;67.88;26.35;;;;;;;-1.97;67.74;100592.19;4898319;29;20048;-81
2022/03/02 04:02:01;;;;;;;55.58;21.60;;;;;;;-1.98;67.86;100592.19;4898677;29;20079;-79
2022/03/02 04:04:27;;;;;;;65.45;26.33;;;;;;;-1.81;67.72;100587.66;4898573;29;20047;-81
2022/03/02 04:06:54;;;;;;;65.78;26.13;;;;;;;-1.75;67.66;100590.22;4894364;29;20044;-80
2022/03/02 04:09:20;;;;;;;78.07;28.75;;;;;;;-1.79;67.61;100583.28;4881473;29;20071;-80
2022/03/02 04:11:46;;;;;;;62.03;26.85;;;;;;;-1.81;67.42;100592.03;4881877;29;20068;-82
2022/03/02 04:14:12;;;;;;;66.78;27.65;;;;;;;-1.78;67.97;100587.63;4897674;29;20044;-79
2022/03/02 04:16:38;;;;;;;67.00;26.42;;;;;;;-1.72;67.56;100592.81;4881701;29;20060;-88
2022/03/02 04:19:04;;;;;;;60.83;25.67;;;;;;;-1.63;67.79;100591.00;4896643;29;20061;-81
2022/03/02 04:21:31;;;;;;;80.20;28.98;;;;;;;-1.55;67.18;100592.63;4896622;29;20115;-84
2022/03/02 04:23:57;;;;;;;78.35;27.52;;;;;;;-1.54;67.12;100596.16;4865284;29;20507;-85
2022/03/02 04:26:23;;;;;;;62.38;25.40;;;;;;;-1.81;66.98;100592.91;4880999;29;20052;-81
2022/03/02 04:28:49;;;;;;;63.05;25.38;;;;;;;-1.89;67.59;100584.25;4896954;29;20099;-79
2022/03/02 04:31:15;;;;;;;63.25;27.05;;;;;;;-1.71;67.37;100604.19;4897895;29;20468;-82
2022/03/02 04:33:41;;;;;;;55.28;24.95;;;;;;;-1.63;67.16;100591.84;4896731;29;20453;-81
2022/03/02 04:36:07;;;;;;;58.78;23.80;;;;;;;-1.63;66.80;100581.38;4897816;29;20051;-79
2022/03/02 04:38:33;;;;;;;47.10;21.40;;;;;;;-1.48;66.72;100596.06;4897939;29;20084;-79
2022/03/02 04:41:00;;;;;;;47.88;20.95;;;;;;;-1.33;66.61;100589.78;4897133;29;20523;-80
2022/03/02 04:43:26;;;;;;;57.45;20.73;;;;;;;-1.38;66.34;100597.72;4896052;29;20041;-82
2022/03/02 04:45:52;;;;;;;50.13;20.88;;;;;;;-1.28;66.31;100593.22;4867142;29;20100;-80
2022/03/02 04:48:19;;;;;;;52.75;20.73;;;;;;;-1.18;65.98;100592.22;4884122;29;20523;-79
2022/03/02 04:50:45;;;;;;;48.63;20.05;;;;;;;-1.14;65.53;100593.06;4900174;29;20412;-80
2022/03/02 04:53:14;;;;;;;49.47;20.67;;;;;;;-1.37;65.17;100599.44;4899976;29;20052;-79
2022/03/02 04:55:40;;;;;;;51.33;22.08;;;;;;;-1.24;65.78;100592.31;4901351;29;20082;-80
2022/03/02 04:58:09;;;;;;;45.63;19.75;;;;;;;-1.09;65.70;100591.22;4899767;29;20049;-80
2022/03/02 05:00:36;;;;;;;45.20;22.15;;;;;;;-1.01;65.85;100597.28;4900114;29;20067;-79
2022/03/02 05:03:04;;;;;;;44.67;21.33;;;;;;;-0.84;65.21;100595.28;4901430;29;20044;-87
2022/03/02 05:05:33;;;;;;;64.75;25.00;;;;;;;-0.63;65.27;100593.28;4900110;29;20076;-78
2022/03/02 05:07:59;;;;;;;57.17;22.27;;;;;;;-0.81;64.57;100590.00;4884342;29;20057;-79
2022/03/02 05:10:25;;;;;;;43.33;19.02;;;;;;;-0.72;64.43;100594.25;4901996;29;20108;-80
2022/03/02 05:12:52;;;;;;;43.92;18.50;;;;;;;-0.87;64.26;100599.72;4900105;29;20037;-82
2022/03/02 05:15:19;;;;;;;48.08;17.65;;;;;;;-1.08;64.76;100601.72;4899556;29;20099;-79
2022/03/02 05:17:46;;;;;;;45.10;18.85;;;;;;;-1.27;64.81;100608.09;4902376;29;20576;-80
2022/03/02 05:20:16;;;;;;;43.47;19.08;;;;;;;-1.38;65.96;100608.22;4901109;29;20079;-84
2022/03/02 05:22:42;;;;;;;48.05;19.30;;;;;;;-1.42;66.21;100598.63;4884273;29;20045;-81
2022/03/02 05:25:09;;;;;;;51.60;20.85;;;;;;;-1.24;65.37;100613.31;4885321;29;20464;-81
2022/03/02 05:27:35;;;;;;;51.95;21.80;;;;;;;-1.29;65.45;100615.09;4902911;29;20415;-84
2022/03/02 05:30:04;;;;;;;56.15;22.75;;;;;;;-1.32;65.78;100623.00;4886688;29;20075;-83
2022/03/02 05:32:31;;;;;;;53.25;22.05;;;;;;;-1.33;66.00;100609.00;4884386;29;20104;-77
2022/03/02 05:34:56;;;;;;;58.78;22.75;;;;;;;-1.17;66.22;100614.94;4869555;29;20048;-78
2022/03/02 05:37:22;;;;;;;59.17;23.55;;;;;;;-0.75;65.96;100613.56;4900724;29;20140;-79
2022/03/02 05:39:48;;;;;;;51.50;22.23;;;;;;;-0.38;64.56;100626.13;4901695;29;20100;-77
2022/03/02 05:42:15;;;;;;;46.63;19.95;;;;;;;-0.06;63.93;100617.78;4901014;29;20051;-79
2022/03/02 05:44:41;;;;;;;48.58;20.80;;;;;;;0.17;62.70;100619.16;4901570;29;20044;-83
2022/03/02 05:47:07;;;;;;;44.05;21.13;;;;;;;0.31;62.59;100617.16;4892724;29;20056;-82
2022/03/02 05:49:34;;;;;;;49.80;21.70;;;;;;;0.48;62.26;100608.94;4883306;29;20053;-81
2022/03/02 05:52:01;;;;;;;52.53;22.60;;;;;;;0.50;61.82;100611.56;4881942;29;20056;-81
2022/03/02 05:54:26;;;;;;;45.55;19.20;;;;;;;0.46;61.08;100602.88;4865010;29;20071;-82
2022/03/02 05:56:52;;;;;;;45.17;19.08;;;;;;;0.09;61.23;100606.13;4889424;29;20143;-80
2022/03/02 05:59:18;;;;;;;48.65;21.10;;;;;;;0.13;61.59;100610.44;4890155;29;20079;-81
2022/03/02 06:01:44;;;;;;;44.75;20.02;;;;;;;0.20;61.43;100604.19;4889442;29;20071;-82
2022/03/02 06:04:14;;;;;;;45.83;20.75;;;;;;;0.52;61.41;100604.50;4891564;29;20045;-83
2022/03/02 06:06:40;;;;;;;53.75;20.92;;;;;;;0.64;61.43;100604.25;4891488;29;20179;-81
2022/03/02 06:09:08;;;;;;;48.85;21.83;;;;;;;0.69;60.81;100607.69;4891496;29;20135;-81
2022/03/02 06:11:36;;;;;;;50.60;22.05;;;;;;;0.68;60.35;100608.59;4892150;29;20043;-82
2022/03/02 06:14:03;;;;;;;46.42;21.80;;;;;;;0.68;60.48;100601.56;4874818;29;20416;-83
2022/03/02 06:16:30;;;;;;;52.70;22.23;;;;;;;0.67;60.61;100605.06;4879408;29;20080;-82
2022/03/02 06:18:56;;;;;;;47.30;22.23;;;;;;;0.64;60.79;100605.16;4900730;29;20124;-81
2022/03/02 06:21:30;;;;;;;49.38;22.95;;;;;;;1.02;60.52;100606.16;4875049;29;20469;-80
2022/03/02 06:23:57;;;;;;;51.33;21.80;;;;;;;1.14;59.75;100607.66;4874903;29;20044;-79
2022/03/02 06:26:25;;;;;;;57.15;26.67;;;;;;;1.36;59.60;100600.16;4873412;29;20040;-78
2022/03/02 06:28:51;;;;;;;57.10;23.35;;;;;;;1.39;58.64;100597.44;4899419;29;20049;-79
2022/03/02 06:31:21;;;;;;;48.35;23.58;;;;;;;1.61;58.94;100601.31;4899656;29;20072;-79
2022/03/02 06:33:47;;;;;;;51.70;22.75;;;;;;;1.83;58.22;100600.81;4883154;29;20049;-80
2022/03/02 06:36:15;;;;;;;58.30;24.80;;;;;;;1.86;57.99;100600.75;4882569;29;20055;-82
2022/03/02 06:38:41;;;;;;;52.05;22.65;;;;;;;1.98;57.47;100600.44;4887221;29;20088;-83
2022/03/02 06:41:30;;;;;;;57.00;26.08;;;;;;;1.81;57.90;100597.38;4908387;29;20048;-81
2022/03/02 06:44:29;;;;;;;53.92;26.15;;;;;;;1.74;58.25;100598.41;4884712;29;20143;-79
2022/03/02 06:47:09;;;;;;;75.38;29.33;;;;;;;1.37;59.32;100601.88;4895162;29;20132;-84
2022/03/02 06:49:56;;;;;;;66.50;28.33;;;;;;;1.04;60.50;100598.22;4891790;29;20109;-87
2022/03/02 06:52:27;;;;;;;76.90;29.15;;;;;;;1.33;60.51;100597.59;4891428;29;20056;-86
2022/03/02 06:54:55;;;;;;;72.10;28.90;;;;;;;1.88;59.80;100596.28;4880662;29;20075;-84
2022/03/02 06:57:26;;;;;;;80.03;29.30;;;;;;;2.30;59.19;100597.00;4904721;29;20068;-85
2022/03/02 06:59:53;;;;;;;67.43;29.33;;;;;;;2.60;57.98;100590.03;4873354;29;20044;-82
2022/03/02 07:02:39;;;;;;;74.53;29.10;;;;;;;2.73;56.75;100592.31;4884032;29;20178;-84
2022/03/02 07:05:09;;;;;;;73.82;29.80;;;;;;;2.81;56.60;100587.69;4887898;29;20049;-85
2022/03/02 07:07:36;;;;;;;75.75;30.20;;;;;;;2.82;56.37;100592.06;4872080;29;20044;-85
2022/03/02 07:10:07;;;;;;;68.78;28.92;;;;;;;3.00;55.83;100591.53;4877666;29;20505;-84
2022/03/02 07:12:33;;;;;;;66.68;30.30;;;;;;;3.12;55.81;100588.56;4881067;29;20048;-86
2022/03/02 07:14:59;;;;;;;66.95;29.83;;;;;;;3.09;56.08;100575.44;4898772;29;20457;-85
2022/03/02 07:17:32;;;;;;;68.05;30.23;;;;;;;3.34;55.51;100579.97;4881887;29;20063;-85
2022/03/02 07:20:03;;;;;;;65.05;29.52;;;;;;;3.56;55.01;100583.66;4881757;29;20048;-84
2022/03/02 07:22:35;;;;;;;67.50;28.80;;;;;;;3.69;53.78;100578.03;4885492;29;20476;-84
2022/03/02 07:25:11;;;;;;;73.57;28.77;;;;;;;3.72;53.98;100567.31;4890221;29;20053;-85
2022/03/02 07:27:39;;;;;;;67.65;27.15;;;;;;;3.98;53.34;100569.09;4896093;29;20044;-86
2022/03/02 07:30:08;;;;;;;66.57;28.55;;;;;;;3.95;53.47;100572.75;4915103;29;20041;-84
2022/03/02 07:32:36;;;;;;;58.00;26.05;;;;;;;4.00;52.87;100583.16;4900516;29;20025;-85
2022/03/02 07:35:05;;;;;;;61.08;27.08;;;;;;;3.97;53.03;100580.63;4898307;29;20052;-84
2022/03/02 07:37:31;;;;;;;73.43;30.48;;;;;;;4.17;53.00;100583.44;4897420;29;20131;-86
2022/03/02 07:39:59;;;;;;;74.57;30.20;;;;;;;4.23;52.22;100575.31;4901124;29;20060;-84
2022/03/02 07:42:25;;;;;;;91.20;32.92;;;;;;;3.93;52.44;100576.34;4895919;29;20124;-85
2022/03/02 07:44:53;;;;;;;83.60;30.73;;;;;;;3.94;52.75;100568.34;4899919;29;20425;-85
2022/03/02 07:47:19;;;;;;;82.93;31.70;;;;;;;3.97;52.47;100575.31;4871414;29;20053;-86
2022/03/02 07:49:46;;;;;;;79.15;29.98;;;;;;;4.04;52.77;100579.50;4887024;29;20041;-86
2022/03/02 07:52:15;;;;;;;79.07;32.00;;;;;;;4.19;52.40;100575.47;4888014;29;20048;-84
2022/03/02 07:54:42;;;;;;;76.55;31.75;;;;;;;4.19;52.42;100562.25;4887649;29;20045;-88
2022/03/02 07:57:13;;;;;;;85.22;33.22;;;;;;;4.08;52.38;100576.69;4886470;29;20432;-89
2022/03/02 07:59:44;;;;;;;77.50;32.13;;;;;;;4.22;52.18;100563.00;4887639;29;20484;-89
2022/03/02 08:02:12;;;;;;;84.97;32.15;;;;;;;4.36;51.81;100562.50;4880943;29;20524;-84
2022/03/02 08:04:39;;;;;;;90.07;31.63;;;;;;;4.30;51.95;100555.66;4883067;29;20412;-89
2022/03/02 08:07:06;;;;;;;96.18;33.35;;;;;;;4.24;52.13;100553.22;4896890;29;20056;-82
2022/03/02 08:09:32;;;;;;;114.00;34.40;;;;;;;4.25;52.12;100551.44;4880964;29;20044;-83
2022/03/02 08:12:00;;;;;;;104.13;36.78;;;;;;;4.33;51.76;100554.69;4849856;29;20100;-83
2022/03/02 08:14:29;;;;;;;111.35;39.70;;;;;;;4.35;51.73;100558.13;4881131;29;20516;-82
2022/03/02 08:16:55;;;;;;;108.35;39.50;;;;;;;4.17;51.99;100556.13;4880795;29;20208;-78
2022/03/02 08:19:22;;;;;;;110.85;39.95;;;;;;;4.28;52.48;100559.25;4897190;29;20067;-78
2022/03/02 08:22:01;;;;;;;133.52;43.10;;;;;;;4.31;51.86;100551.22;4895640;29;20075;-81
2022/03/02 08:24:27;;;;;;;109.75;39.25;;;;;;;4.30;51.86;100560.09;4896593;29;20041;-79
2022/03/02 08:26:58;;;;;;;114.95;38.03;;;;;;;4.26;52.59;100564.63;4897761;29;20056;-86
2022/03/02 08:29:27;;;;;;;106.28;37.45;;;;;;;4.41;51.65;100568.53;4880512;29;20107;-86
2022/03/02 08:31:58;;;;;;;135.30;38.85;;;;;;;4.37;51.59;100551.03;4880932;29;20049;-81
2022/03/02 08:34:24;;;;;;;97.03;37.28;;;;;;;4.47;51.71;100557.69;4866019;29;20048;-82
2022/03/02 08:36:53;;;;;;;101.93;39.00;;;;;;;4.59;51.72;100551.97;4895914;29;20044;-84
2022/03/02 08:39:19;;;;;;;103.78;38.17;;;;;;;4.67;50.91;100558.78;4880428;29;20103;-82
2022/03/02 08:41:45;;;;;;;118.25;39.30;;;;;;;4.63;51.00;100553.59;4896607;29;20048;-86
2022/03/02 08:44:12;;;;;;;114.55;39.70;;;;;;;4.24;51.85;100555.84;4897004;29;20040;-83
2022/03/02 08:46:40;;;;;;;116.25;41.20;;;;;;;3.95;52.04;100537.47;4880920;29;20040;-85
2022/03/02 08:49:06;;;;;;;131.55;43.85;;;;;;;3.89;52.41;100544.69;4880916;29;20559;-83
2022/03/02 08:51:35;;;;;;;138.30;42.40;;;;;;;3.96;52.67;100537.44;4896666;29;20056;-90
2022/03/02 08:54:04;;;;;;;128.88;41.92;;;;;;;4.10;52.57;100527.25;4897323;29;20044;-88
2022/03/02 08:56:32;;;;;;;129.33;40.83;;;;;;;4.43;51.71;100536.69;4896531;29;20515;-88
2022/03/02 08:59:00;;;;;;;146.50;42.55;;;;;;;4.13;52.14;100542.13;4899460;29;20413;-89
2022/03/02 09:01:30;;;;;;;147.70;42.00;;;;;;;3.75;52.57;100530.19;4896642;29;20071;-87
2022/03/02 09:03:59;;;;;;;170.95;45.78;;;;;;;3.87;52.61;100535.06;4896127;29;20067;-78
2022/03/02 09:06:29;;;;;;;189.13;49.17;;;;;;;3.94;52.46;100531.31;4897660;29;20072;-84
2022/03/02 09:08:55;;;;;;;201.95;52.47;;;;;;;4.17;52.58;100527.00;4865515;29;20086;-82
2022/03/02 09:11:22;;;;;;;232.57;55.35;;;;;;;4.28;52.34;100525.72;4898666;29;20044;-81
2022/03/02 09:13:51;;;;;;;239.00;54.45;;;;;;;4.42;51.50;100527.88;4896352;29;20528;-86
2022/03/02 09:16:17;;;;;;;245.65;55.22;;;;;;;4.36;51.72;100522.78;4896470;29;20052;-80
2022/03/02 09:18:44;;;;;;;259.10;57.33;;;;;;;4.38;51.61;100523.63;4897503;29;20052;-85
2022/03/02 09:21:13;;;;;;;248.85;55.50;;;;;;;4.41;51.47;100526.16;4896994;29;20060;-81
2022/03/02 09:23:43;;;;;;;264.13;62.15;;;;;;;4.32;51.51;100521.19;4896058;29;20072;-88
2022/03/02 09:26:13;;;;;;;267.08;60.53;;;;;;;3.68;52.21;100523.38;4896818;29;20100;-87
2022/03/02 09:28:42;;;;;;;249.50;64.43;;;;;;;3.19;53.06;100536.38;4896940;29;20048;-91
2022/03/02 09:31:11;;;;;;;228.37;55.90;;;;;;;2.71;54.47;100526.38;4880878;29;20120;-89
2022/03/02 09:33:37;;;;;;;219.20;57.67;;;;;;;2.46;55.17;100518.28;4883642;29;20576;-92
2022/03/02 09:36:06;;;;;;;226.57;53.30;;;;;;;2.22;56.28;100524.22;4900851;29;20045;-91
2022/03/02 09:38:34;;;;;;;242.30;60.07;;;;;;;2.15;56.78;100521.75;4906275;29;20485;-94
2022/03/02 09:41:08;;;;;;;217.10;56.63;;;;;;;2.14;56.97;100527.94;4906108;29;20066;-92
2022/03/02 09:43:36;;;;;;;237.07;61.35;;;;;;;2.38;57.35;100525.56;4905617;29;20045;-92
2022/03/02 09:46:06;;;;;;;249.48;63.75;;;;;;;2.29;56.94;100531.91;4904435;29;20097;-91
2022/03/02 09:48:49;;;;;;;257.42;63.28;;;;;;;2.56;56.63;100538.25;4911072;29;20055;-95
2022/03/02 09:51:22;;;;;;;204.00;53.95;;;;;;;2.44;56.64;100530.63;4917678;29;20461;-93
2022/03/02 09:53:52;;;;;;;178.98;49.60;;;;;;;2.36;56.48;100522.06;4922235;29;20019;-90
2022/03/02 09:56:19;;;;;;;;;;;;;;;2.57;56.34;100532.03;4904782;29;20051;-89
2022/03/02 09:58:50;;;;;;;172.38;43.28;;;;;;;2.29;56.54;100523.16;4908502;29;19924;-83
2022/03/02 10:01:24;;;;;;;162.70;45.97;;;;;;;1.88;57.31;100509.28;4881964;29;20491;-83
2022/03/02 10:03:52;;;;;;;177.13;48.20;;;;;;;2.03;57.17;100523.84;4880723;29;20060;-89
2022/03/02 10:06:20;;;;;;;155.38;42.63;;;;;;;2.30;57.07;100516.97;4880792;29;20045;-93
2022/03/02 10:08:55;;;;;;;162.98;44.78;;;;;;;2.57;56.30;100510.94;4866300;29;20087;-91
2022/03/02 10:11:23;;;;;;;184.60;47.88;;;;;;;2.74;56.17;100512.19;4881685;29;20037;-89
2022/03/02 10:13:51;;;;;;;193.43;49.60;;;;;;;2.61;55.49;100512.56;4882000;29;20052;-87
2022/03/02 10:16:28;;;;;;;190.15;51.25;;;;;;;2.39;55.60;100520.22;4881020;29;20061;-87
2022/03/02 10:19:05;;;;;;;195.93;50.67;;;;;;;2.50;56.12;100512.00;4881669;29;20493;-88
2022/03/02 10:21:33;;;;;;;156.32;43.20;;;;;;;2.61;55.55;100507.28;4881142;29;20568;-88
2022/03/02 10:24:04;;;;;;;162.02;45.40;;;;;;;2.64;55.92;100507.19;4880602;29;20048;-89
2022/03/02 10:26:35;;;;;;;153.57;44.88;;;;;;;2.83;55.40;100504.03;4882065;29;20045;-88
2022/03/02 10:29:02;;;;;;;173.10;48.40;;;;;;;3.09;55.42;100513.81;4880124;29;20109;-89
2022/03/02 10:31:47;;;;;;;125.57;39.50;;;;;;;3.06;54.58;100508.63;4864723;29;20052;-88
2022/03/02 10:34:25;;;;;;;111.57;37.53;;;;;;;3.16;54.89;100510.94;4864825;29;20075;-88
2022/03/02 10:37:19;;;;;;;95.47;31.58;;;;;;;2.69;54.93;100507.06;4881407;29;20144;-87
2022/03/02 10:39:54;;;;;;;110.90;37.65;;;;;;;2.26;55.74;100499.47;4874496;29;20083;-89
2022/03/02 10:42:53;;;;;;;79.95;31.05;;;;;;;2.53;55.61;100508.44;4880407;29;20064;-90
2022/03/02 10:45:22;;;;;;;85.20;30.33;;;;;;;2.89;55.41;100493.25;4861855;29;20060;-90
2022/03/02 10:48:12;;;;;;;84.50;31.60;;;;;;;3.11;54.64;100490.84;4865467;29;20036;-89
2022/03/02 10:50:40;;;;;;;90.80;34.30;;;;;;;3.20;54.04;100484.38;4852850;29;20045;-87
2022/03/02 10:53:15;;;;;;;90.22;33.47;;;;;;;3.27;54.13;100480.63;4884797;29;20048;-87
2022/03/02 10:55:46;;;;;;;81.88;29.33;;;;;;;2.95;54.10;100485.16;4881197;29;20037;-84
2022/03/02 10:58:15;;;;;;;72.35;27.55;;;;;;;2.63;54.95;100484.38;4881659;29;20053;-85
2022/03/02 11:00:41;;;;;;;68.60;28.17;;;;;;;2.60;55.01;100475.66;4850384;29;20060;-88
2022/03/02 11:03:08;;;;;;;80.25;28.92;;;;;;;2.35;55.56;100470.22;4849164;29;20036;-89
2022/03/02 11:05:35;;;;;;;72.65;28.27;;;;;;;2.83;55.47;100474.97;4865113;29;20045;-90
2022/03/02 11:08:03;;;;;;;75.45;31.35;;;;;;;3.50;54.89;100483.44;4880394;29;20041;-89
2022/03/02 11:10:37;;;;;;;89.32;31.88;;;;;;;4.03;52.96;100478.09;4880021;29;20049;-88
2022/03/02 11:13:13;;;;;;;79.70;32.00;;;;;;;4.10;52.11;100474.31;4864596;29;20421;-89
2022/03/02 11:15:51;;;;;;;82.57;32.42;;;;;;;4.78;51.33;100471.84;4863851;29;20048;-87